Time;durP1;ratioP1;P1;durP2;ratioP2;P2;SDS_P1;SDS_P2;PMS_P1;PMS_P2;Temp;Humidity;BMP_temperature;BMP_pressure;BME280_temperature;BME280_humidity;BME280_pressure;Samples;Min_cycle;Max_cycle;Signal;HPM_P1;HPM_P2
2023/07/04 00:01:46;;;;;;;7.03;1.73;;;17.80;96.10;;;;;;10460310;28;20127;-32
2023/07/04 00:06:48;;;;;;;9.38;1.75;;;19.00;94.40;;;;;;10455509;28;20051;-32
2023/07/04 00:11:51;;;;;;;7.07;2.00;;;16.90;99.90;;;;;;10455528;28;20120;-33
2023/07/04 00:16:53;;;;;;;5.00;1.48;;;17.20;99.90;;;;;;10454801;28;20055;-32
2023/07/04 00:21:55;;;;;;;10.32;2.00;;;17.10;99.90;;;;;;10464338;28;20090;-37
2023/07/04 00:26:59;;;;;;;8.57;1.80;;;17.20;99.90;;;;;;10456099;28;20083;-32
2023/07/04 00:32:02;;;;;;;11.07;2.30;;;17.70;98.00;;;;;;10461802;28;20156;-34
2023/07/04 00:37:04;;;;;;;12.90;3.33;;;17.30;99.90;;;;;;10457241;28;20052;-33
2023/07/04 00:42:08;;;;;;;5.57;1.42;;;17.60;97.20;;;;;;10455239;28;20068;-33
2023/07/04 00:47:15;;;;;;;6.28;2.80;;;17.50;97.70;;;;;;10457023;28;20045;-32
2023/07/04 00:52:23;;;;;;;2.90;1.30;;;18.60;91.30;;;;;;10449168;28;20048;-38
2023/07/04 00:57:31;;;;;;;10.93;1.98;;;19.40;83.90;;;;;;10457602;28;20052;-38
2023/07/04 01:02:34;;;;;;;2.80;1.27;;;19.50;81.80;;;;;;10455903;28;20477;-38
2023/07/04 01:07:41;;;;;;;5.57;1.55;;;19.40;84.10;;;;;;10448776;28;20061;-37
2023/07/04 01:12:46;;;;;;;6.90;1.42;;;18.40;91.00;;;;;;10454938;28;20056;-37
2023/07/04 01:17:48;;;;;;;4.35;1.20;;;18.60;91.50;;;;;;10443812;28;20057;-35
2023/07/04 01:22:59;;;;;;;9.63;1.60;;;16.90;96.30;;;;;;10459071;28;20052;-32
2023/07/04 01:28:04;;;;;;;3.70;1.25;;;17.40;94.80;;;;;;10456311;28;20170;-33
2023/07/04 01:33:08;;;;;;;4.93;1.30;;;17.20;94.30;;;;;;10449364;28;20056;-32
2023/07/04 01:38:11;;;;;;;6.47;1.33;;;17.50;94.30;;;;;;10448229;28;20143;-34
2023/07/04 01:43:14;;;;;;;4.88;1.17;;;16.50;97.20;;;;;;10456806;28;20115;-37
2023/07/04 01:48:17;;;;;;;8.38;1.13;;;17.40;94.90;;;;;;10453708;28;20466;-34
2023/07/04 01:53:19;;;;;;;4.40;1.17;;;18.10;92.40;;;;;;10455707;28;20072;-34
2023/07/04 01:58:22;;;;;;;9.30;1.63;;;18.80;89.10;;;;;;10453699;28;20072;-32
2023/07/04 02:03:24;;;;;;;8.07;1.63;;;17.80;94.60;;;;;;10457776;28;20135;-32
2023/07/04 02:08:26;;;;;;;7.00;1.50;;;17.60;95.40;;;;;;10463538;28;20136;-33
2023/07/04 02:13:29;;;;;;;5.50;1.47;;;16.90;95.90;;;;;;10451146;28;20136;-39
2023/07/04 02:18:32;;;;;;;7.32;1.48;;;17.90;91.10;;;;;;10452227;28;20110;-30
2023/07/04 02:23:34;;;;;;;6.38;1.38;;;18.40;87.50;;;;;;10457973;28;20128;-33
2023/07/04 02:28:37;;;;;;;10.75;1.77;;;16.90;92.20;;;;;;10449994;28;20076;-34
2023/07/04 02:33:39;;;;;;;9.63;1.70;;;16.80;90.90;;;;;;10451172;28;20466;-33
2023/07/04 02:38:41;;;;;;;4.10;0.80;;;16.80;94.30;;;;;;10449022;28;20139;-34
2023/07/04 02:43:44;;;;;;;11.20;1.30;;;17.30;92.60;;;;;;10449611;28;20072;-34
2023/07/04 02:48:46;;;;;;;3.95;1.30;;;16.50;94.20;;;;;;10446948;28;20108;-34
2023/07/04 02:53:48;;;;;;;9.70;1.73;;;17.50;91.60;;;;;;10443332;28;20080;-35
2023/07/04 02:58:51;;;;;;;;;;;18.20;85.00;;;;;;10452604;28;20158;-41
2023/07/04 03:03:53;;;;;;;;;;;17.00;91.30;;;;;;10451396;28;19920;-33
2023/07/04 03:15:29;;;;;;;9.05;1.77;;;18.40;82.20;;;;;;10544369;27;1327219;-40
2023/07/04 03:20:31;;;;;;;9.00;1.33;;;17.80;88.90;;;;;;10546832;28;20131;-32
2023/07/04 03:25:33;;;;;;;6.45;1.63;;;17.60;85.30;;;;;;10557476;28;20107;-35
2023/07/04 03:30:36;;;;;;;12.23;1.92;;;16.80;89.60;;;;;;10553586;28;20075;-34
2023/07/04 03:35:39;;;;;;;9.43;1.45;;;17.00;90.60;;;;;;10538552;28;20098;-32
2023/07/04 03:40:40;;;;;;;11.85;1.73;;;17.60;90.00;;;;;;10542099;28;20131;-36
2023/07/04 03:45:46;;;;;;;13.07;1.63;;;17.10;91.60;;;;;;10546835;28;20126;-33
2023/07/04 03:50:48;;;;;;;10.32;1.73;;;18.00;86.70;;;;;;10548277;28;20569;-34
2023/07/04 03:55:50;;;;;;;7.43;1.45;;;17.90;87.40;;;;;;10550383;28;20547;-36
2023/07/04 04:00:53;;;;;;;4.53;1.40;;;17.30;91.10;;;;;;10547382;28;20048;-33
2023/07/04 04:05:55;;;;;;;11.88;1.65;;;17.60;88.10;;;;;;10544946;28;20540;-30
2023/07/04 04:10:57;;;;;;;13.27;1.57;;;17.40;88.50;;;;;;10546941;28;20074;-32
2023/07/04 04:16:00;;;;;;;20.17;1.52;;;16.90;92.20;;;;;;10546845;28;20117;-33
2023/07/04 04:21:02;;;;;;;3.45;1.20;;;17.50;84.90;;;;;;10539312;28;20177;-36
2023/07/04 04:26:04;;;;;;;9.98;1.40;;;17.80;87.90;;;;;;10514090;28;20103;-33
2023/07/04 04:31:08;;;;;;;10.05;1.60;;;18.50;80.20;;;;;;10529775;28;20053;-33
2023/07/04 04:36:10;;;;;;;7.47;1.25;;;17.60;87.70;;;;;;10524736;28;20072;-33
2023/07/04 04:41:12;;;;;;;16.10;1.67;;;17.50;88.70;;;;;;10534203;28;20134;-32
2023/07/04 04:46:15;;;;;;;10.15;1.85;;;17.40;90.30;;;;;;10503498;28;20055;-33
2023/07/04 04:51:18;;;;;;;8.93;1.85;;;17.70;89.20;;;;;;10508298;28;20087;-36
2023/07/04 04:56:20;;;;;;;8.98;1.60;;;17.80;89.40;;;;;;10499036;28;20046;-33
2023/07/04 05:01:25;;;;;;;6.25;1.60;;;18.50;84.40;;;;;;10521876;28;20044;-37
2023/07/04 05:06:28;;;;;;;11.38;1.92;;;17.90;89.80;;;;;;10514283;28;20501;-40
2023/07/04 05:11:32;;;;;;;10.40;1.45;;;18.60;82.80;;;;;;10506677;28;20080;-34
2023/07/04 05:16:36;;;;;;;6.72;1.05;;;18.00;87.90;;;;;;10513199;28;20105;-33
2023/07/04 05:21:38;;;;;;;9.68;1.73;;;18.20;84.70;;;;;;10511345;28;20071;-35
2023/07/04 05:26:40;;;;;;;6.32;1.40;;;17.10;92.60;;;;;;10503522;28;20090;-37
2023/07/04 05:31:43;;;;;;;18.17;2.35;;;18.40;86.10;;;;;;10519788;28;20088;-35
2023/07/04 05:36:44;;;;;;;11.32;2.00;;;18.60;83.50;;;;;;10512390;28;20079;-32
2023/07/04 05:41:46;;;;;;;10.13;2.10;;;17.60;92.10;;;;;;10508821;28;20075;-34
2023/07/04 05:46:49;;;;;;;13.82;1.98;;;18.40;85.40;;;;;;10520218;28;20122;-34
2023/07/04 05:51:51;;;;;;;10.45;2.05;;;17.40;93.30;;;;;;10492747;28;20059;-37
2023/07/04 05:56:55;;;;;;;9.27;2.35;;;18.30;88.70;;;;;;10512672;28;20068;-37
2023/07/04 06:01:59;;;;;;;8.40;1.40;;;18.10;90.70;;;;;;10518415;28;20093;-33
2023/07/04 06:07:02;;;;;;;8.63;1.92;;;18.70;83.10;;;;;;10523088;28;20041;-34
2023/07/04 06:12:07;;;;;;;;;;;18.10;89.10;;;;;;10517999;28;20159;-35
2023/07/04 06:17:10;;;;;;;10.50;1.90;;;17.20;94.70;;;;;;10507553;28;20345;-36
2023/07/04 06:22:12;;;;;;;10.68;1.90;;;17.90;93.20;;;;;;10531279;28;20469;-36
2023/07/04 06:27:14;;;;;;;5.00;1.55;;;18.50;87.30;;;;;;10528490;28;20132;-34
2023/07/04 06:32:17;;;;;;;11.13;1.83;;;17.50;93.60;;;;;;10499597;28;20076;-35
2023/07/04 06:37:19;;;;;;;10.00;1.83;;;17.60;93.40;;;;;;10498448;28;20139;-32
2023/07/04 06:42:21;;;;;;;8.45;1.52;;;18.60;84.30;;;;;;10522296;28;20125;-36
2023/07/04 06:47:24;;;;;;;10.10;1.70;;;18.30;87.40;;;;;;10509726;28;20130;-33
2023/07/04 06:52:25;;;;;;;10.68;1.63;;;19.00;80.60;;;;;;10506926;28;20472;-32
2023/07/04 06:57:27;;;;;;;9.88;2.13;;;18.60;85.80;;;;;;10496229;28;20139;-40
2023/07/04 07:02:31;;;;;;;5.72;1.90;;;17.80;92.00;;;;;;10486540;28;20051;-41
2023/07/04 07:07:33;;;;;;;6.75;2.17;;;18.50;88.00;;;;;;10502092;28;20056;-35
2023/07/04 07:12:35;;;;;;;11.68;2.60;;;18.80;84.80;;;;;;10496127;28;20085;-37
2023/07/04 07:17:39;;;;;;;8.98;1.90;;;18.50;84.90;;;;;;10496713;28;20076;-41
2023/07/04 07:22:41;;;;;;;21.52;4.10;;;18.00;90.00;;;;;;10492405;28;20048;-41
2023/07/04 07:27:44;;;;;;;8.25;1.60;;;18.20;90.10;;;;;;10498827;28;20080;-39
2023/07/04 07:32:47;;;;;;;13.13;2.47;;;18.40;88.30;;;;;;10513865;28;20109;-39
2023/07/04 07:37:49;;;;;;;11.95;1.60;;;18.40;88.20;;;;;;10506224;28;20052;-39
2023/07/04 07:42:51;;;;;;;11.90;1.77;;;18.50;86.70;;;;;;10507407;28;20098;-34
2023/07/04 07:48:01;;;;;;;13.90;2.23;;;18.50;85.60;;;;;;10514864;28;20074;-32
2023/07/04 07:53:04;;;;;;;15.70;2.13;;;18.60;82.20;;;;;;10510673;28;22096;-37
2023/07/04 07:58:07;;;;;;;15.57;2.58;;;18.50;88.90;;;;;;10517225;28;20134;-36
2023/07/04 08:03:11;;;;;;;10.50;1.67;;;18.40;86.80;;;;;;10516043;28;20075;-33
2023/07/04 08:08:13;;;;;;;13.43;1.98;;;18.80;87.60;;;;;;10508155;28;20366;-31
2023/07/04 08:13:15;;;;;;;8.35;1.75;;;18.70;85.90;;;;;;10509492;28;20143;-34
2023/07/04 08:18:18;;;;;;;15.35;2.25;;;18.60;81.00;;;;;;10521005;28;20097;-34
2023/07/04 08:23:20;;;;;;;10.73;2.13;;;18.50;82.90;;;;;;10511158;28;20102;-32
2023/07/04 08:28:22;;;;;;;16.77;2.40;;;18.30;90.60;;;;;;10517588;28;20052;-36
2023/07/04 08:33:25;;;;;;;8.55;1.73;;;18.90;89.10;;;;;;10512715;28;20044;-35
2023/07/04 08:38:28;;;;;;;16.55;2.08;;;19.60;77.50;;;;;;10519551;28;20051;-36
2023/07/04 08:43:35;;;;;;;6.72;1.45;;;20.10;75.40;;;;;;10505861;28;20485;-32
2023/07/04 08:48:40;;;;;;;13.68;2.42;;;19.20;81.90;;;;;;10524856;28;20109;-35
2023/07/04 08:53:44;;;;;;;10.10;1.65;;;18.60;90.70;;;;;;10518325;28;20153;-32
2023/07/04 08:58:52;;;;;;;14.20;2.28;;;19.50;80.10;;;;;;10517159;28;20055;-34
2023/07/04 09:03:58;;;;;;;10.20;2.38;;;18.90;90.00;;;;;;10517548;28;20076;-36
2023/07/04 09:09:13;;;;;;;11.73;2.58;;;19.90;77.50;;;;;;10519227;28;20165;-36
2023/07/04 09:14:22;;;;;;;9.75;2.38;;;19.50;82.30;;;;;;10517452;28;20143;-36
2023/07/04 09:19:25;;;;;;;8.35;2.00;;;19.70;79.20;;;;;;10520050;28;20453;-32
2023/07/04 09:24:27;;;;;;;11.65;1.95;;;19.70;75.30;;;;;;10517659;28;20043;-33
2023/07/04 09:29:29;;;;;;;9.80;2.05;;;19.70;75.50;;;;;;10516905;28;20046;-35
2023/07/04 09:34:37;;;;;;;15.70;2.05;;;20.10;79.60;;;;;;10516548;28;20048;-35
2023/07/04 09:39:49;;;;;;;8.57;2.08;;;19.30;83.60;;;;;;10517508;28;20566;-36
2023/07/04 09:44:55;;;;;;;8.45;1.70;;;19.30;81.70;;;;;;10513965;28;20048;-38
2023/07/04 09:50:12;;;;;;;10.40;2.13;;;19.50;80.00;;;;;;10518387;28;20046;-40
2023/07/04 09:55:24;;;;;;;15.95;2.83;;;19.50;75.30;;;;;;10514812;28;20143;-38
2023/07/04 10:00:27;;;;;;;11.23;2.30;;;19.80;80.70;;;;;;10515658;28;20127;-34
2023/07/04 10:05:32;;;;;;;5.68;1.48;;;20.10;75.50;;;;;;10509591;28;20269;-37
2023/07/04 10:10:36;;;;;;;9.65;1.80;;;20.00;74.50;;;;;;10515180;28;20067;-35
2023/07/04 10:15:40;;;;;;;10.52;1.67;;;20.40;70.90;;;;;;10512700;28;20088;-36
2023/07/04 10:20:44;;;;;;;11.82;1.90;;;19.70;71.70;;;;;;10515578;28;20401;-35
2023/07/04 10:25:47;;;;;;;7.05;1.27;;;20.00;69.50;;;;;;10516639;28;20036;-35
2023/07/04 10:30:54;;;;;;;10.65;1.60;;;20.10;67.30;;;;;;10512821;28;20325;-35
2023/07/04 10:35:58;;;;;;;6.65;1.45;;;20.30;72.30;;;;;;10515004;28;20420;-35
2023/07/04 10:41:00;;;;;;;7.65;1.52;;;20.70;69.70;;;;;;10521523;28;20410;-34
2023/07/04 10:46:04;;;;;;;;;;;20.90;66.30;;;;;;10517873;28;20127;-33
2023/07/04 10:51:12;;;;;;;9.40;1.88;;;20.80;65.00;;;;;;10511709;28;19928;-35
2023/07/04 10:56:22;;;;;;;13.23;1.88;;;20.10;64.40;;;;;;10512083;28;20051;-33
2023/07/04 11:01:29;;;;;;;3.70;1.10;;;19.80;67.90;;;;;;10505466;28;20159;-34
2023/07/04 11:06:38;;;;;;;12.98;2.83;;;21.10;66.00;;;;;;10517607;28;20079;-33
2023/07/04 11:11:43;;;;;;;6.95;2.60;;;20.40;67.40;;;;;;10516177;28;20048;-38
2023/07/04 11:16:46;;;;;;;6.32;2.30;;;20.80;65.30;;;;;;10518748;28;20087;-34
2023/07/04 11:22:09;;;;;;;5.32;1.17;;;20.20;67.60;;;;;;10522863;28;20040;-35
2023/07/04 11:27:13;;;;;;;7.15;1.52;;;20.60;68.80;;;;;;10511791;28;20056;-41
2023/07/04 11:32:22;;;;;;;7.63;1.90;;;20.40;66.90;;;;;;10500098;28;20060;-37
2023/07/04 11:37:31;;;;;;;5.60;1.20;;;21.00;67.00;;;;;;10527288;28;20123;-34
2023/07/04 11:42:39;;;;;;;10.07;1.65;;;21.00;64.90;;;;;;10530189;28;20047;-37
2023/07/04 11:47:45;;;;;;;8.35;1.95;;;21.10;64.30;;;;;;10526211;28;20041;-35
2023/07/04 11:52:56;;;;;;;7.07;2.20;;;20.90;69.60;;;;;;10530582;28;20051;-33
2023/07/04 11:58:14;;;;;;;9.70;1.38;;;21.00;66.00;;;;;;10519854;28;20532;-37
2023/07/04 12:03:42;;;;;;;13.35;1.67;;;20.80;69.30;;;;;;10520038;28;20044;-34
2023/07/04 12:08:50;;;;;;;8.15;1.50;;;20.70;64.00;;;;;;10526237;28;20126;-36
2023/07/04 12:13:53;;;;;;;10.05;2.10;;;21.50;62.80;;;;;;10526908;28;20105;-38
2023/07/04 12:18:56;;;;;;;7.20;1.63;;;21.20;64.70;;;;;;10528951;28;20064;-37
2023/07/04 12:24:03;;;;;;;9.35;2.00;;;21.70;62.10;;;;;;10521316;28;20478;-35
2023/07/04 12:29:05;;;;;;;4.35;1.40;;;21.40;65.60;;;;;;10521904;28;20055;-39
2023/07/04 12:34:08;;;;;;;4.88;1.20;;;21.50;62.80;;;;;;10527435;28;20491;-34
2023/07/04 12:39:15;;;;;;;4.53;1.13;;;22.30;61.80;;;;;;10517157;28;20044;-38
2023/07/04 12:44:17;;;;;;;3.78;1.52;;;22.30;62.50;;;;;;10505237;28;20072;-34
2023/07/04 12:49:20;;;;;;;6.88;1.77;;;22.20;59.90;;;;;;10516319;28;20144;-33
2023/07/04 12:54:23;;;;;;;5.88;1.10;;;22.40;60.10;;;;;;10512962;28;20159;-33
2023/07/04 12:59:33;;;;;;;3.88;1.83;;;22.60;59.80;;;;;;10523874;28;20378;-39
2023/07/04 13:04:35;;;;;;;5.97;1.10;;;22.60;60.60;;;;;;10527498;28;20123;-42
2023/07/04 13:09:42;;;;;;;3.67;1.25;;;22.40;56.10;;;;;;10515484;28;20051;-34
2023/07/04 13:14:45;;;;;;;6.95;1.45;;;22.70;58.50;;;;;;10511643;28;20143;-34
2023/07/04 13:19:47;;;;;;;4.55;1.52;;;23.40;57.90;;;;;;10515869;28;20101;-34
2023/07/04 13:24:52;;;;;;;;;;;23.50;56.90;;;;;;10511695;28;20044;-34
2023/07/04 13:29:56;;;;;;;8.05;0.93;;;23.90;54.40;;;;;;10527037;28;19928;-34
2023/07/04 13:34:58;;;;;;;5.47;1.20;;;22.80;55.90;;;;;;10525581;28;20141;-36
2023/07/04 13:40:01;;;;;;;3.50;1.20;;;22.70;57.90;;;;;;10517494;28;20516;-39
2023/07/04 13:45:03;;;;;;;6.57;1.40;;;22.40;60.20;;;;;;10534011;28;20136;-33
2023/07/04 13:50:06;;;;;;;;;;;22.60;60.10;;;;;;10527273;28;20820;-34
2023/07/04 13:55:10;;;;;;;2.85;0.95;;;23.60;60.10;;;;;;10529070;28;19923;-32
2023/07/04 14:00:14;;;;;;;4.25;1.38;;;23.80;60.30;;;;;;10513247;28;20185;-33
2023/07/04 14:05:16;;;;;;;5.75;1.63;;;23.40;58.00;;;;;;10514500;28;20045;-35
2023/07/04 14:10:19;;;;;;;;;;;23.10;53.30;;;;;;10520564;28;20036;-31
2023/07/04 14:15:22;;;;;;;3.75;1.20;;;23.30;53.90;;;;;;10525169;28;19931;-36
2023/07/04 14:20:24;;;;;;;2.35;1.02;;;23.40;57.80;;;;;;10513415;28;20076;-35
2023/07/04 14:25:27;;;;;;;4.30;1.20;;;23.60;61.90;;;;;;10520249;28;20093;-34
2023/07/04 14:30:29;;;;;;;6.20;1.63;;;23.30;56.60;;;;;;10515521;28;20115;-33
2023/07/04 14:35:31;;;;;;;4.82;1.30;;;24.00;57.60;;;;;;10510154;28;20479;-35
2023/07/04 14:40:36;;;;;;;4.97;1.73;;;24.40;61.20;;;;;;10504295;28;20048;-35
2023/07/04 14:45:38;;;;;;;5.60;1.60;;;24.30;57.40;;;;;;10526159;28;20051;-36
2023/07/04 14:50:40;;;;;;;3.38;1.40;;;23.90;57.30;;;;;;10518477;28;20123;-33
2023/07/04 14:55:43;;;;;;;4.68;1.67;;;23.70;56.60;;;;;;10527022;28;20135;-34
2023/07/04 15:00:45;;;;;;;4.03;1.50;;;24.70;56.00;;;;;;10525258;28;20146;-34
2023/07/04 15:05:47;;;;;;;6.60;1.48;;;25.00;54.30;;;;;;10511314;28;20139;-33
2023/07/04 15:10:50;;;;;;;6.30;2.08;;;24.60;58.40;;;;;;10513521;28;20040;-38
2023/07/04 15:16:01;;;;;;;5.15;1.80;;;25.50;53.60;;;;;;10524572;28;20489;-37
2023/07/04 15:21:05;;;;;;;6.10;1.50;;;25.20;55.00;;;;;;10520843;28;20048;-35
2023/07/04 15:26:08;;;;;;;6.32;1.70;;;26.00;55.30;;;;;;10526074;28;20044;-35
2023/07/04 15:31:10;;;;;;;4.55;1.38;;;26.20;55.70;;;;;;10509314;28;20064;-36
2023/07/04 15:36:12;;;;;;;6.78;1.90;;;25.50;52.40;;;;;;10504883;28;20083;-38
2023/07/04 15:41:18;;;;;;;4.43;1.73;;;25.20;51.70;;;;;;10498570;28;20139;-33
2023/07/04 15:46:20;;;;;;;4.15;1.63;;;25.10;55.70;;;;;;10503852;28;20036;-41
2023/07/04 15:51:25;;;;;;;4.75;1.10;;;26.40;55.60;;;;;;10493759;28;20055;-35
2023/07/04 15:56:28;;;;;;;6.57;1.92;;;26.90;55.90;;;;;;10513047;28;20044;-33
2023/07/04 16:01:30;;;;;;;2.53;1.42;;;26.70;55.30;;;;;;10512269;28;20048;-34
2023/07/04 16:06:32;;;;;;;4.50;2.08;;;26.90;56.50;;;;;;10518555;28;20139;-34
2023/07/04 16:11:37;;;;;;;2.60;1.13;;;25.40;56.70;;;;;;10516056;28;20130;-36
2023/07/04 16:16:39;;;;;;;3.30;1.40;;;26.80;56.00;;;;;;10515860;28;20055;-36
2023/07/04 16:21:41;;;;;;;5.13;1.95;;;27.20;54.40;;;;;;10509167;28;20048;-37
2023/07/04 16:26:44;;;;;;;6.45;1.98;;;27.30;54.00;;;;;;10523904;28;20489;-32
2023/07/04 16:31:46;;;;;;;4.55;2.38;;;27.40;54.40;;;;;;10519395;28;20087;-40
2023/07/04 16:36:48;;;;;;;5.60;1.58;;;27.50;54.10;;;;;;10515872;28;20106;-36
2023/07/04 16:41:53;;;;;;;4.53;1.50;;;27.50;54.50;;;;;;10531108;28;20127;-37
2023/07/04 16:46:55;;;;;;;4.88;1.80;;;27.60;54.60;;;;;;10507650;28;20060;-34
2023/07/04 16:51:57;;;;;;;4.38;1.95;;;27.60;53.70;;;;;;10518211;28;20076;-35
2023/07/04 16:57:04;;;;;;;5.65;1.88;;;27.70;53.60;;;;;;10523338;28;20048;-34
2023/07/04 17:02:06;;;;;;;4.90;1.90;;;27.70;53.60;;;;;;10514821;28;20484;-34
2023/07/04 17:07:08;;;;;;;4.45;1.60;;;27.70;53.60;;;;;;10511319;28;20068;-37
2023/07/04 17:12:11;;;;;;;6.40;1.90;;;27.70;53.70;;;;;;10518608;28;20093;-37
2023/07/04 17:17:13;;;;;;;3.80;1.60;;;27.70;53.60;;;;;;10522027;28;20159;-34
2023/07/04 17:22:15;;;;;;;4.50;2.30;;;27.70;53.70;;;;;;10505632;28;20469;-33
2023/07/04 17:27:18;;;;;;;4.75;1.88;;;27.70;53.90;;;;;;10522377;28;20046;-36
2023/07/04 17:32:20;;;;;;;3.33;1.60;;;27.70;54.10;;;;;;10512358;28;20127;-35
2023/07/04 17:37:23;;;;;;;5.40;1.90;;;27.70;54.00;;;;;;10519281;28;20079;-37
2023/07/04 17:42:28;;;;;;;3.33;1.65;;;27.70;53.90;;;;;;10515420;28;20076;-36
2023/07/04 17:47:30;;;;;;;3.50;2.00;;;27.60;53.90;;;;;;10513706;28;20087;-36
2023/07/04 17:52:32;;;;;;;5.22;1.85;;;27.60;53.90;;;;;;10526523;28;20551;-40
2023/07/04 17:57:36;;;;;;;4.45;1.85;;;27.60;53.90;;;;;;10516144;28;20437;-38
2023/07/04 18:02:38;;;;;;;4.18;1.88;;;27.60;54.00;;;;;;10514328;28;20048;-35
2023/07/04 18:07:39;;;;;;;4.72;1.73;;;27.60;54.00;;;;;;10509263;28;20070;-41
2023/07/04 18:12:43;;;;;;;6.22;1.52;;;27.60;54.00;;;;;;10517543;28;20052;-40
2023/07/04 18:17:44;;;;;;;5.13;1.77;;;27.50;54.00;;;;;;10512511;28;20056;-36
2023/07/04 18:22:46;;;;;;;4.00;1.60;;;27.50;54.20;;;;;;10512803;28;20076;-37
2023/07/04 18:27:52;;;;;;;2.95;1.50;;;27.50;54.10;;;;;;10520013;28;20125;-34
2023/07/04 18:32:53;;;;;;;5.05;1.50;;;27.50;54.20;;;;;;10517965;28;20056;-36
2023/07/04 18:37:55;;;;;;;3.15;1.60;;;27.50;54.20;;;;;;10521175;28;20234;-35
2023/07/04 18:42:58;;;;;;;3.00;1.70;;;27.50;54.20;;;;;;10510449;28;20044;-34
2023/07/04 18:48:01;;;;;;;3.17;2.25;;;27.50;54.30;;;;;;10529737;28;20130;-34
2023/07/04 18:53:03;;;;;;;3.20;1.50;;;27.40;54.20;;;;;;10511129;28;20040;-34
2023/07/04 18:58:07;;;;;;;2.22;1.08;;;27.40;54.40;;;;;;10516942;28;20507;-38
2023/07/04 19:03:09;;;;;;;1.83;0.85;;;27.40;54.40;;;;;;10508177;28;20041;-37
2023/07/04 19:08:11;;;;;;;2.72;1.40;;;27.40;54.60;;;;;;10520037;28;20134;-34
2023/07/04 19:13:15;;;;;;;3.35;1.35;;;27.30;54.50;;;;;;10501104;28;20411;-38
2023/07/04 19:18:17;;;;;;;3.22;1.30;;;27.30;54.50;;;;;;10514246;28;20058;-33
2023/07/04 19:23:19;;;;;;;4.65;1.60;;;27.30;54.50;;;;;;10519592;28;20405;-38
2023/07/04 19:28:23;;;;;;;6.82;2.03;;;27.20;54.50;;;;;;10510826;28;20564;-35
2023/07/04 19:33:26;;;;;;;4.03;1.58;;;27.20;54.40;;;;;;10506541;28;20480;-32
2023/07/04 19:38:29;;;;;;;3.83;1.65;;;27.20;54.40;;;;;;10524366;28;20128;-35
2023/07/04 19:43:33;;;;;;;3.78;1.80;;;27.20;54.50;;;;;;10519124;28;20071;-37
2023/07/04 19:48:36;;;;;;;4.95;2.08;;;27.10;54.40;;;;;;10513146;28;20056;-37
2023/07/04 19:53:40;;;;;;;4.32;1.55;;;27.10;54.50;;;;;;10522160;28;20044;-36
2023/07/04 19:58:44;;;;;;;7.95;2.40;;;27.10;54.50;;;;;;10522391;28;20105;-40
2023/07/04 20:03:46;;;;;;;11.38;2.30;;;27.00;54.50;;;;;;10522184;28;20044;-37
2023/07/04 20:08:49;;;;;;;12.32;2.13;;;27.00;54.60;;;;;;10516374;28;20052;-36
2023/07/04 20:13:52;;;;;;;5.80;1.90;;;26.90;54.60;;;;;;10516740;28;20152;-36
2023/07/04 20:18:55;;;;;;;9.65;2.95;;;26.90;54.60;;;;;;10515574;28;20084;-33
2023/07/04 20:23:57;;;;;;;5.38;1.67;;;26.90;54.60;;;;;;10526887;28;20040;-37
2023/07/04 20:29:00;;;;;;;11.38;2.20;;;26.90;54.60;;;;;;10527593;28;20063;-33
2023/07/04 20:34:02;;;;;;;6.57;1.83;;;26.90;54.70;;;;;;10523398;28;20040;-37
2023/07/04 20:39:04;;;;;;;4.15;1.52;;;26.80;54.80;;;;;;10533422;28;20044;-38
2023/07/04 20:44:08;;;;;;;6.15;1.80;;;26.80;54.80;;;;;;10519136;28;20071;-40
2023/07/04 20:49:10;;;;;;;7.40;1.92;;;26.80;54.80;;;;;;10523338;28;20040;-36
2023/07/04 20:54:13;;;;;;;6.78;1.90;;;26.80;54.90;;;;;;10505690;28;20072;-33
2023/07/04 20:59:16;;;;;;;5.60;2.10;;;26.70;54.90;;;;;;10517885;28;20059;-37
2023/07/04 21:04:18;;;;;;;6.38;2.00;;;26.70;54.90;;;;;;10517663;28;20052;-36
2023/07/04 21:09:22;;;;;;;6.80;1.98;;;26.70;55.00;;;;;;10521170;28;20051;-34
2023/07/04 21:14:25;;;;;;;5.88;2.20;;;26.70;55.10;;;;;;10522524;28;20133;-34
2023/07/04 21:19:27;;;;;;;9.40;2.47;;;26.60;55.00;;;;;;10518692;28;20044;-34
2023/07/04 21:24:29;;;;;;;7.65;2.47;;;26.60;55.10;;;;;;10527111;28;20142;-34
2023/07/04 21:29:33;;;;;;;8.77;3.17;;;26.60;55.10;;;;;;10514075;28;20051;-36
2023/07/04 21:34:35;;;;;;;7.32;2.92;;;26.50;55.20;;;;;;10513284;28;20056;-38
2023/07/04 21:39:37;;;;;;;7.82;2.50;;;26.50;55.20;;;;;;10511317;28;20117;-36
2023/07/04 21:44:40;;;;;;;6.05;3.13;;;26.50;55.30;;;;;;10496570;28;20052;-34
2023/07/04 21:49:43;;;;;;;6.53;2.65;;;26.50;55.30;;;;;;10504685;28;20129;-34
2023/07/04 21:54:45;;;;;;;11.18;3.38;;;26.40;55.40;;;;;;10520939;28;20141;-35
2023/07/04 21:59:48;;;;;;;5.90;2.13;;;26.40;55.50;;;;;;10519946;28;20511;-39
2023/07/04 22:04:50;;;;;;;5.50;2.55;;;26.40;55.40;;;;;;10501017;28;20072;-38
2023/07/04 22:09:53;;;;;;;7.13;2.50;;;26.40;55.50;;;;;;10512992;28;20143;-35
2023/07/04 22:14:56;;;;;;;3.92;2.35;;;26.40;55.60;;;;;;10519496;28;20657;-37
2023/07/04 22:19:58;;;;;;;6.60;2.38;;;26.30;55.60;;;;;;10518759;28;20059;-34
2023/07/04 22:25:00;;;;;;;7.15;2.83;;;26.20;55.50;;;;;;10533954;28;20048;-33
2023/07/04 22:30:04;;;;;;;7.30;2.88;;;26.20;55.60;;;;;;10518500;28;20693;-33
2023/07/04 22:35:07;;;;;;;5.72;2.75;;;26.20;55.60;;;;;;10516707;28;20139;-33
2023/07/04 22:40:10;;;;;;;5.60;2.15;;;26.20;55.70;;;;;;10501896;28;20119;-33
2023/07/04 22:45:13;;;;;;;5.22;2.70;;;26.10;55.70;;;;;;10503736;28;20046;-33
2023/07/04 22:50:15;;;;;;;6.65;3.15;;;26.10;55.80;;;;;;10511443;28;20116;-36
2023/07/04 22:55:18;;;;;;;4.82;2.70;;;26.10;55.80;;;;;;10511830;28;20075;-34
2023/07/04 23:00:21;;;;;;;7.00;2.97;;;26.10;55.80;;;;;;10521768;28;20079;-34
2023/07/04 23:05:23;;;;;;;6.45;2.70;;;25.80;56.10;;;;;;10520588;28;20542;-33
2023/07/04 23:10:25;;;;;;;6.88;2.33;;;26.00;56.10;;;;;;10515104;28;20500;-36
2023/07/04 23:15:28;;;;;;;6.72;2.47;;;26.00;56.10;;;;;;10522651;28;20151;-33
2023/07/04 23:20:30;;;;;;;3.42;1.98;;;25.90;56.20;;;;;;10510100;28;20555;-38
2023/07/04 23:25:32;;;;;;;3.33;2.17;;;25.90;56.20;;;;;;10517301;28;20127;-38
2023/07/04 23:30:35;;;;;;;3.50;2.13;;;25.80;56.50;;;;;;10524367;28;20048;-33
2023/07/04 23:35:37;;;;;;;5.88;2.10;;;25.80;56.70;;;;;;10524640;28;20049;-33
2023/07/04 23:40:39;;;;;;;6.65;2.20;;;25.70;56.90;;;;;;10526767;28;20040;-38
2023/07/04 23:45:43;;;;;;;3.85;2.15;;;25.60;57.10;;;;;;10531169;28;20121;-36
2023/07/04 23:50:45;;;;;;;3.47;1.90;;;25.70;57.00;;;;;;10519910;28;20048;-35
2023/07/04 23:55:47;;;;;;;5.70;1.90;;;25.70;57.10;;;;;;10522211;28;20171;-35
